Time;durP1;ratioP1;P1;durP2;ratioP2;P2;SDS_P1;SDS_P2;PMS_P1;PMS_P2;Temp;Humidity;BMP_temperature;BMP_pressure;BME280_temperature;BME280_humidity;BME280_pressure;Samples;Min_cycle;Max_cycle;Signal;HPM_P1;HPM_P2
2022/09/11 00:00:37;;;;;;;32.80;24.53;;;;;;;;;;5013548;28;20184;-65
2022/09/11 00:03:03;;;;;;;33.67;23.40;;;;;;;;;;4995685;28;20176;-66
2022/09/11 00:05:30;;;;;;;32.80;23.53;;;;;;;;;;4995756;28;20209;-67
2022/09/11 00:07:56;;;;;;;36.77;25.30;;;;;;;;;;5013277;28;20210;-65
2022/09/11 00:10:26;;;;;;;39.47;25.07;;;;;;;;;;5013769;28;20660;-66
2022/09/11 00:12:52;;;;;;;38.60;25.07;;;;;;;;;;4995574;28;20257;-65
2022/09/11 00:15:18;;;;;;;38.50;25.97;;;;;;;;;;5013232;28;20179;-65
2022/09/11 00:17:44;;;;;;;35.57;25.50;;;;;;;;;;4999307;28;20754;-65
2022/09/11 00:20:10;;;;;;;43.47;27.07;;;;;;;;;;5017397;28;20620;-65
2022/09/11 00:22:36;;;;;;;40.80;27.07;;;;;;;;;;5017399;28;20171;-65
2022/09/11 00:25:02;;;;;;;43.00;27.40;;;;;;;;;;4999433;28;20187;-65
2022/09/11 00:27:28;;;;;;;38.90;27.17;;;;;;;;;;5016889;28;20219;-65
2022/09/11 00:29:54;;;;;;;42.43;27.20;;;;;;;;;;5016894;28;20180;-65
2022/09/11 00:32:20;;;;;;;43.60;28.77;;;;;;;;;;4999268;28;20230;-65
2022/09/11 00:34:46;;;;;;;43.77;28.30;;;;;;;;;;4999187;28;20190;-65
2022/09/11 00:37:12;;;;;;;43.87;29.13;;;;;;;;;;5016723;28;20672;-65
2022/09/11 00:39:38;;;;;;;49.27;29.87;;;;;;;;;;4999423;28;20202;-65
2022/09/11 00:42:04;;;;;;;44.20;29.17;;;;;;;;;;5016733;28;20180;-65
2022/09/11 00:44:30;;;;;;;50.33;30.30;;;;;;;;;;4999026;28;20176;-66
2022/09/11 00:46:57;;;;;;;49.17;29.70;;;;;;;;;;5016501;28;20249;-65
2022/09/11 00:49:23;;;;;;;49.83;31.43;;;;;;;;;;5016837;28;20190;-65
2022/09/11 00:51:52;;;;;;;53.20;34.13;;;;;;;;;;4998945;28;20187;-65
2022/09/11 00:54:20;;;;;;;55.37;33.47;;;;;;;;;;4998954;28;20188;-65
2022/09/11 00:56:46;;;;;;;51.30;33.23;;;;;;;;;;5016266;28;20204;-65
2022/09/11 00:59:12;;;;;;;51.30;32.47;;;;;;;;;;5016462;28;20651;-66
2022/09/11 01:01:38;;;;;;;54.60;33.67;;;;;;;;;;5016646;28;20541;-66
2022/09/11 01:04:06;;;;;;;58.03;36.20;;;;;;;;;;5016193;28;20259;-65
2022/09/11 01:06:33;;;;;;;54.70;35.27;;;;;;;;;;4998561;28;20221;-65
2022/09/11 01:08:59;;;;;;;56.67;34.17;;;;;;;;;;4998665;28;20551;-65
2022/09/11 01:11:35;;;;;;;52.70;34.17;;;;;;;;;;5016116;28;20175;-65
2022/09/11 01:14:09;;;;;;;56.67;35.33;;;;;;;;;;5016303;28;20156;-65
2022/09/11 01:17:14;;;;;;;61.20;35.73;;;;;;;;;;4998391;28;20298;-66
2022/09/11 01:19:52;;;;;;;62.37;36.50;;;;;;;;;;4936510;29;20190;-66
2022/09/11 01:22:23;;;;;;;61.20;35.67;;;;;;;;;;4936587;29;20194;-66
2022/09/11 01:25:05;;;;;;;66.47;37.87;;;;;;;;;;4967878;28;20557;-66
2022/09/11 01:27:46;;;;;;;66.90;35.83;;;;;;;;;;5015742;28;20222;-66
2022/09/11 01:30:22;;;;;;;72.30;37.77;;;;;;;;;;5015836;28;20192;-65
2022/09/11 01:32:58;;;;;;;69.43;37.33;;;;;;;;;;5015719;28;20206;-65
2022/09/11 01:35:40;;;;;;;60.73;37.03;;;;;;;;;;4998219;28;20186;-66
2022/09/11 01:38:12;;;;;;;62.90;37.00;;;;;;;;;;4997933;28;20222;-65
2022/09/11 01:40:44;;;;;;;61.30;37.10;;;;;;;;;;4998031;28;20164;-65
2022/09/11 01:43:12;;;;;;;65.67;37.97;;;;;;;;;;5015866;28;20175;-66
2022/09/11 01:45:40;;;;;;;64.47;37.83;;;;;;;;;;5015893;28;20647;-66
2022/09/11 01:48:07;;;;;;;58.13;35.10;;;;;;;;;;5015526;28;20245;-66
2022/09/11 01:50:34;;;;;;;64.83;36.57;;;;;;;;;;4997997;28;20183;-66
2022/09/11 01:53:02;;;;;;;67.27;37.67;;;;;;;;;;4998186;28;20583;-65
2022/09/11 01:55:30;;;;;;;61.33;37.07;;;;;;;;;;4997959;28;20659;-65
2022/09/11 01:58:03;;;;;;;63.27;38.47;;;;;;;;;;5015041;28;20214;-65
2022/09/11 02:00:34;;;;;;;57.97;36.10;;;;;;;;;;5015209;28;20640;-66
2022/09/11 02:03:03;;;;;;;63.93;37.20;;;;;;;;;;5015597;28;20156;-66
2022/09/11 02:05:35;;;;;;;57.60;37.63;;;;;;;;;;5015483;28;20262;-65
2022/09/11 02:08:05;;;;;;;63.40;38.23;;;;;;;;;;4997519;28;20265;-65
2022/09/11 02:10:34;;;;;;;62.73;38.77;;;;;;;;;;5015062;28;20183;-65
2022/09/11 02:13:14;;;;;;;65.97;39.57;;;;;;;;;;5015092;28;20176;-65
2022/09/11 02:15:46;;;;;;;67.80;40.07;;;;;;;;;;5014958;28;20186;-66
2022/09/11 02:18:14;;;;;;;64.83;38.70;;;;;;;;;;5015717;28;20196;-65
2022/09/11 02:20:43;;;;;;;64.83;40.53;;;;;;;;;;4997387;28;20180;-65
2022/09/11 02:23:09;;;;;;;67.37;41.17;;;;;;;;;;5014899;28;20225;-65
2022/09/11 02:25:35;;;;;;;72.53;41.70;;;;;;;;;;4997209;28;20663;-65
2022/09/11 02:28:01;;;;;;;71.07;41.83;;;;;;;;;;5014656;28;20635;-66
2022/09/11 02:30:27;;;;;;;64.83;40.87;;;;;;;;;;4997209;28;20268;-65
2022/09/11 02:32:54;;;;;;;76.30;43.37;;;;;;;;;;5015265;28;20540;-66
2022/09/11 02:35:21;;;;;;;74.83;42.20;;;;;;;;;;5014681;28;20184;-66
2022/09/11 02:37:48;;;;;;;72.87;43.37;;;;;;;;;;5014475;28;20230;-65
2022/09/11 02:40:26;;;;;;;84.83;45.03;;;;;;;;;;4996510;28;20184;-65
2022/09/11 02:43:08;;;;;;;78.83;44.53;;;;;;;;;;4996929;28;20648;-66
2022/09/11 02:45:37;;;;;;;80.30;44.53;;;;;;;;;;4996919;28;20175;-66
2022/09/11 02:48:12;;;;;;;81.90;45.37;;;;;;;;;;5014651;28;20206;-65
2022/09/11 02:51:01;;;;;;;81.60;45.27;;;;;;;;;;5014399;28;20617;-65
2022/09/11 02:53:32;;;;;;;85.93;47.83;;;;;;;;;;4996826;28;20168;-66
2022/09/11 02:56:02;;;;;;;86.73;49.00;;;;;;;;;;5014588;28;20659;-65
2022/09/11 02:58:31;;;;;;;92.17;48.50;;;;;;;;;;4996521;28;20220;-66
2022/09/11 03:00:58;;;;;;;90.20;49.23;;;;;;;;;;5014481;28;20208;-65
2022/09/11 03:03:24;;;;;;;98.63;48.37;;;;;;;;;;5014155;28;20184;-65
2022/09/11 03:05:50;;;;;;;94.03;49.20;;;;;;;;;;4996554;28;20183;-66
2022/09/11 03:08:16;;;;;;;92.70;50.10;;;;;;;;;;5015023;28;20215;-66
2022/09/11 03:10:46;;;;;;;100.47;51.53;;;;;;;;;;4996970;28;20706;-65
2022/09/11 03:13:13;;;;;;;92.83;49.10;;;;;;;;;;5014325;28;20179;-65
2022/09/11 03:15:39;;;;;;;96.87;48.63;;;;;;;;;;4997060;28;20187;-65
2022/09/11 03:18:05;;;;;;;101.57;52.17;;;;;;;;;;4996779;28;20215;-65
2022/09/11 03:20:33;;;;;;;105.27;53.23;;;;;;;;;;5014154;28;20183;-65
2022/09/11 03:22:59;;;;;;;95.77;51.40;;;;;;;;;;4996412;28;20179;-66
2022/09/11 03:25:27;;;;;;;112.63;54.40;;;;;;;;;;4996161;28;20176;-65
2022/09/11 03:27:53;;;;;;;95.90;52.77;;;;;;;;;;4996053;28;20269;-66
2022/09/11 03:30:19;;;;;;;111.70;55.50;;;;;;;;;;5013760;28;20179;-65
2022/09/11 03:32:45;;;;;;;104.47;55.20;;;;;;;;;;5013681;28;20221;-65
2022/09/11 03:35:11;;;;;;;105.20;51.80;;;;;;;;;;5013724;28;20211;-65
2022/09/11 03:37:37;;;;;;;104.67;54.67;;;;;;;;;;5013466;28;20207;-66
2022/09/11 03:40:03;;;;;;;104.83;54.37;;;;;;;;;;4995981;28;20188;-65
2022/09/11 03:42:30;;;;;;;116.63;55.50;;;;;;;;;;4995907;28;20270;-66
2022/09/11 03:44:56;;;;;;;104.80;53.27;;;;;;;;;;4996104;28;20186;-66
2022/09/11 03:47:22;;;;;;;107.83;55.40;;;;;;;;;;5013485;28;20195;-65
2022/09/11 03:49:48;;;;;;;103.90;52.63;;;;;;;;;;5013127;28;20559;-65
2022/09/11 03:52:14;;;;;;;102.47;53.27;;;;;;;;;;5012933;28;20179;-66
2022/09/11 03:54:40;;;;;;;101.33;53.33;;;;;;;;;;4995838;28;20189;-66
2022/09/11 03:57:06;;;;;;;102.13;52.60;;;;;;;;;;4995655;28;20207;-67
2022/09/11 03:59:32;;;;;;;104.67;55.03;;;;;;;;;;5013964;28;20208;-66
2022/09/11 04:01:58;;;;;;;115.97;55.77;;;;;;;;;;5013597;28;20190;-66
2022/09/11 04:04:23;;;;;;;125.57;57.03;;;;;;;;;;5013865;28;20172;-66
2022/09/11 04:06:50;;;;;;;106.00;54.87;;;;;;;;;;5013245;28;20202;-66
2022/09/11 04:09:16;;;;;;;111.97;56.17;;;;;;;;;;5013251;28;20551;-65
2022/09/11 04:11:42;;;;;;;112.87;55.27;;;;;;;;;;5013313;28;20180;-65
2022/09/11 04:14:08;;;;;;;122.47;56.03;;;;;;;;;;4995651;28;20188;-66
2022/09/11 04:16:35;;;;;;;121.73;56.23;;;;;;;;;;5013213;28;20196;-66
2022/09/11 04:19:01;;;;;;;125.20;55.17;;;;;;;;;;4995655;28;20176;-66
2022/09/11 04:21:27;;;;;;;120.00;56.07;;;;;;;;;;4995549;28;20286;-66
2022/09/11 04:23:55;;;;;;;130.00;54.40;;;;;;;;;;4995557;28;20186;-66
2022/09/11 04:26:22;;;;;;;141.27;56.43;;;;;;;;;;4995267;28;20219;-65
2022/09/11 04:28:48;;;;;;;122.07;55.97;;;;;;;;;;5013110;28;20175;-65
2022/09/11 04:31:15;;;;;;;143.83;57.73;;;;;;;;;;5013432;28;20667;-65
2022/09/11 04:33:41;;;;;;;141.93;56.17;;;;;;;;;;4995415;28;20190;-65
2022/09/11 04:36:09;;;;;;;133.30;55.83;;;;;;;;;;5013269;28;20196;-65
2022/09/11 04:38:35;;;;;;;128.03;55.70;;;;;;;;;;5013189;28;20203;-65
2022/09/11 04:41:02;;;;;;;139.63;58.87;;;;;;;;;;4995364;28;20243;-66
2022/09/11 04:43:28;;;;;;;148.73;58.63;;;;;;;;;;4995227;28;20195;-66
2022/09/11 04:45:59;;;;;;;190.70;58.67;;;;;;;;;;5012860;28;20226;-65
2022/09/11 04:48:25;;;;;;;146.93;57.53;;;;;;;;;;5013222;28;20207;-65
2022/09/11 04:50:57;;;;;;;160.50;58.03;;;;;;;;;;5013197;28;20220;-65
2022/09/11 04:53:23;;;;;;;166.93;57.97;;;;;;;;;;5012984;28;20168;-65
2022/09/11 04:55:49;;;;;;;146.20;60.50;;;;;;;;;;5013006;28;20183;-65
2022/09/11 04:58:15;;;;;;;159.50;60.63;;;;;;;;;;5013137;28;20235;-65
2022/09/11 05:00:41;;;;;;;144.57;59.93;;;;;;;;;;5013279;28;20180;-65
2022/09/11 05:03:07;;;;;;;180.47;60.80;;;;;;;;;;5016316;28;20184;-65
2022/09/11 05:05:33;;;;;;;194.23;62.00;;;;;;;;;;5016400;28;20168;-65
2022/09/11 05:07:59;;;;;;;153.23;61.30;;;;;;;;;;5016299;28;20203;-65
2022/09/11 05:10:26;;;;;;;181.47;60.07;;;;;;;;;;5016176;28;20191;-65
2022/09/11 05:12:52;;;;;;;142.67;61.57;;;;;;;;;;5016362;28;20266;-65
2022/09/11 05:15:18;;;;;;;190.27;59.40;;;;;;;;;;5016404;28;20280;-65
2022/09/11 05:17:44;;;;;;;151.27;57.57;;;;;;;;;;5015927;28;20207;-65
2022/09/11 05:20:10;;;;;;;147.20;54.27;;;;;;;;;;5015988;28;20537;-66
2022/09/11 05:22:36;;;;;;;140.77;56.83;;;;;;;;;;5016002;28;20185;-65
2022/09/11 05:25:02;;;;;;;163.07;61.00;;;;;;;;;;4998386;28;20645;-65
2022/09/11 05:27:28;;;;;;;174.50;59.27;;;;;;;;;;4998227;28;20758;-65
2022/09/11 05:29:53;;;;;;;189.70;61.07;;;;;;;;;;5016186;28;20180;-64
2022/09/11 05:32:19;;;;;;;187.90;61.00;;;;;;;;;;5015946;28;20648;-66
2022/09/11 05:34:45;;;;;;;175.43;62.20;;;;;;;;;;4998302;28;20640;-65
2022/09/11 05:37:11;;;;;;;170.60;59.87;;;;;;;;;;5016248;28;20211;-65
2022/09/11 05:39:37;;;;;;;179.53;61.07;;;;;;;;;;5015720;28;20187;-65
2022/09/11 05:42:03;;;;;;;183.93;60.57;;;;;;;;;;4998072;28;20180;-65
2022/09/11 05:44:29;;;;;;;164.83;62.67;;;;;;;;;;5015698;28;20180;-65
2022/09/11 05:46:55;;;;;;;190.30;61.80;;;;;;;;;;4997982;28;20208;-65
2022/09/11 05:49:21;;;;;;;181.27;65.23;;;;;;;;;;4997896;28;20648;-65
2022/09/11 05:51:47;;;;;;;173.93;64.63;;;;;;;;;;5015441;28;20180;-66
2022/09/11 05:54:14;;;;;;;195.53;64.70;;;;;;;;;;4997966;28;20183;-66
2022/09/11 05:56:40;;;;;;;199.53;66.90;;;;;;;;;;4997643;28;20692;-66
2022/09/11 05:59:12;;;;;;;194.03;64.93;;;;;;;;;;5015471;28;20179;-65
2022/09/11 06:01:38;;;;;;;178.07;64.33;;;;;;;;;;5015865;28;20159;-65
2022/09/11 06:04:08;;;;;;;198.73;63.93;;;;;;;;;;5015554;28;20532;-65
2022/09/11 06:06:34;;;;;;;185.37;66.77;;;;;;;;;;4997763;28;20682;-65
2022/09/11 06:09:00;;;;;;;204.50;64.90;;;;;;;;;;4997649;28;20176;-65
2022/09/11 06:11:26;;;;;;;227.10;67.77;;;;;;;;;;5015140;28;20218;-66
2022/09/11 06:13:52;;;;;;;226.03;64.23;;;;;;;;;;4996742;28;20283;-65
2022/09/11 06:16:19;;;;;;;206.57;65.10;;;;;;;;;;5015038;28;20203;-65
2022/09/11 06:18:47;;;;;;;214.67;64.13;;;;;;;;;;5014970;28;20199;-63
2022/09/11 06:21:18;;;;;;;167.73;63.73;;;;;;;;;;5014995;28;20210;-65
2022/09/11 06:23:44;;;;;;;217.07;62.10;;;;;;;;;;4997516;28;20191;-65
2022/09/11 06:26:11;;;;;;;186.83;65.30;;;;;;;;;;5015011;28;20266;-66
2022/09/11 06:28:38;;;;;;;247.67;68.13;;;;;;;;;;4997541;28;20554;-66
2022/09/11 06:31:04;;;;;;;190.13;61.83;;;;;;;;;;5015199;28;20278;-66
2022/09/11 06:33:35;;;;;;;294.37;67.07;;;;;;;;;;5015144;28;20263;-66
2022/09/11 06:36:02;;;;;;;177.67;65.87;;;;;;;;;;4997166;28;20183;-66
2022/09/11 06:38:30;;;;;;;199.30;64.03;;;;;;;;;;5014800;28;20199;-66
2022/09/11 06:40:56;;;;;;;176.40;66.90;;;;;;;;;;5015127;28;20175;-67
2022/09/11 06:43:22;;;;;;;177.63;64.97;;;;;;;;;;5014564;28;20182;-66
2022/09/11 06:45:48;;;;;;;185.60;66.30;;;;;;;;;;5014599;28;20176;-66
2022/09/11 06:48:18;;;;;;;200.97;66.83;;;;;;;;;;4996764;28;20565;-66
2022/09/11 06:50:44;;;;;;;173.27;67.43;;;;;;;;;;5014441;28;20551;-66
2022/09/11 06:53:10;;;;;;;165.90;67.37;;;;;;;;;;5014909;28;20187;-66
2022/09/11 06:55:36;;;;;;;165.47;65.47;;;;;;;;;;5014360;28;20180;-67
2022/09/11 06:58:02;;;;;;;152.83;64.87;;;;;;;;;;5014119;28;20699;-65
2022/09/11 07:00:28;;;;;;;166.10;65.23;;;;;;;;;;5014513;28;20182;-65
2022/09/11 07:02:57;;;;;;;162.87;67.93;;;;;;;;;;5014749;28;20226;-65
2022/09/11 07:05:24;;;;;;;168.03;65.37;;;;;;;;;;5014692;28;20231;-65
2022/09/11 07:07:52;;;;;;;164.03;67.37;;;;;;;;;;4996408;28;20207;-64
2022/09/11 07:10:18;;;;;;;165.17;70.57;;;;;;;;;;4996547;28;20191;-64
2022/09/11 07:12:44;;;;;;;162.33;67.73;;;;;;;;;;5014376;28;20180;-64
2022/09/11 07:15:10;;;;;;;172.63;68.60;;;;;;;;;;4996429;28;20210;-65
2022/09/11 07:17:36;;;;;;;146.03;62.90;;;;;;;;;;4996057;28;20211;-65
2022/09/11 07:20:07;;;;;;;148.37;60.40;;;;;;;;;;5013878;28;20259;-65
2022/09/11 07:22:36;;;;;;;143.57;62.30;;;;;;;;;;5013878;28;20179;-65
2022/09/11 07:25:02;;;;;;;139.57;62.67;;;;;;;;;;5013701;28;20190;-65
2022/09/11 07:27:30;;;;;;;140.10;61.60;;;;;;;;;;4995774;28;20329;-65
2022/09/11 07:29:56;;;;;;;137.47;60.83;;;;;;;;;;4996141;28;20184;-65
2022/09/11 07:32:22;;;;;;;129.70;58.00;;;;;;;;;;5013995;28;20172;-65
2022/09/11 07:34:48;;;;;;;124.10;57.37;;;;;;;;;;5013657;28;20667;-65
2022/09/11 07:37:14;;;;;;;111.83;54.23;;;;;;;;;;4996160;28;20211;-66
2022/09/11 07:39:40;;;;;;;109.27;53.50;;;;;;;;;;4995967;28;20176;-66
2022/09/11 07:42:06;;;;;;;109.97;53.40;;;;;;;;;;5013534;28;20263;-65
2022/09/11 07:44:35;;;;;;;97.80;51.63;;;;;;;;;;5040451;23;20246;-66
2022/09/11 07:47:02;;;;;;;93.67;50.37;;;;;;;;;;5013646;28;20266;-67
2022/09/11 07:49:28;;;;;;;100.30;54.40;;;;;;;;;;5014276;28;20183;-67
2022/09/11 07:51:54;;;;;;;104.27;54.37;;;;;;;;;;5014819;28;20202;-67
2022/09/11 07:54:20;;;;;;;107.27;55.50;;;;;;;;;;5013050;28;20211;-67
2022/09/11 07:56:46;;;;;;;104.57;54.47;;;;;;;;;;5014348;28;20291;-67
2022/09/11 07:59:12;;;;;;;96.63;53.30;;;;;;;;;;5014103;28;20180;-67
2022/09/11 08:01:38;;;;;;;101.93;53.47;;;;;;;;;;5012842;28;20690;-67
2022/09/11 08:04:06;;;;;;;85.57;47.37;;;;;;;;;;5014055;28;20223;-68
2022/09/11 08:06:33;;;;;;;86.43;49.77;;;;;;;;;;5012949;28;20211;-67
2022/09/11 08:09:01;;;;;;;96.03;50.37;;;;;;;;;;5012556;28;20284;-68
2022/09/11 08:11:27;;;;;;;92.67;49.87;;;;;;;;;;5014163;28;20184;-67
2022/09/11 08:13:54;;;;;;;93.13;50.77;;;;;;;;;;5014282;28;20203;-67
2022/09/11 08:16:21;;;;;;;84.40;47.77;;;;;;;;;;5014265;28;20518;-67
2022/09/11 08:18:48;;;;;;;92.60;50.50;;;;;;;;;;5012036;28;20702;-67
2022/09/11 08:21:14;;;;;;;92.07;50.33;;;;;;;;;;5012233;28;20190;-69
2022/09/11 08:23:42;;;;;;;93.77;50.57;;;;;;;;;;5014175;28;20200;-68
2022/09/11 08:26:08;;;;;;;89.10;50.00;;;;;;;;;;5013949;28;20187;-68
2022/09/11 08:28:34;;;;;;;90.87;48.47;;;;;;;;;;5012282;28;20179;-67
2022/09/11 08:31:00;;;;;;;79.97;45.47;;;;;;;;;;5013144;28;20180;-67
2022/09/11 08:33:27;;;;;;;86.87;47.60;;;;;;;;;;5013349;28;20200;-67
2022/09/11 08:35:53;;;;;;;98.03;48.10;;;;;;;;;;5014045;28;20191;-67
2022/09/11 08:38:19;;;;;;;92.63;47.10;;;;;;;;;;5016625;28;20203;-67
2022/09/11 08:40:46;;;;;;;75.87;44.97;;;;;;;;;;5015793;28;20526;-67
2022/09/11 08:43:16;;;;;;;76.27;44.43;;;;;;;;;;5017290;28;20180;-67
2022/09/11 08:45:42;;;;;;;72.37;42.90;;;;;;;;;;5016070;28;20199;-66
2022/09/11 08:48:11;;;;;;;72.57;42.20;;;;;;;;;;5017105;28;20273;-67
2022/09/11 08:50:39;;;;;;;71.17;43.47;;;;;;;;;;5017056;28;20644;-67
2022/09/11 08:53:07;;;;;;;66.07;41.23;;;;;;;;;;5017378;28;20184;-67
2022/09/11 08:55:38;;;;;;;68.80;42.13;;;;;;;;;;5015779;28;20211;-66
2022/09/11 08:58:39;;;;;;;66.23;40.80;;;;;;;;;;5017431;28;20203;-67
2022/09/11 09:01:23;;;;;;;60.87;38.63;;;;;;;;;;4956230;29;20181;-67
2022/09/11 09:04:13;;;;;;;61.10;39.60;;;;;;;;;;5011728;28;20281;-67
2022/09/11 09:06:50;;;;;;;53.03;35.53;;;;;;;;;;5006421;28;20622;-67
2022/09/11 09:09:19;;;;;;;55.60;37.00;;;;;;;;;;5017285;28;20171;-68
2022/09/11 09:11:54;;;;;;;50.53;35.00;;;;;;;;;;5015816;28;20546;-67
2022/09/11 09:14:49;;;;;;;51.57;34.23;;;;;;;;;;5016405;28;20237;-67
2022/09/11 09:17:18;;;;;;;48.80;35.27;;;;;;;;;;5003439;28;20709;-69
2022/09/11 09:19:45;;;;;;;53.93;36.00;;;;;;;;;;5015201;28;20211;-67
2022/09/11 09:22:25;;;;;;;48.40;36.53;;;;;;;;;;5016341;28;20200;-68
2022/09/11 09:24:59;;;;;;;48.67;34.17;;;;;;;;;;5016035;28;20199;-68
2022/09/11 09:27:35;;;;;;;44.17;33.47;;;;;;;;;;5014969;28;20208;-68
2022/09/11 09:30:02;;;;;;;41.90;32.00;;;;;;;;;;5016513;28;20239;-67
2022/09/11 09:32:31;;;;;;;47.03;32.73;;;;;;;;;;5017315;28;20181;-68
2022/09/11 09:35:00;;;;;;;37.17;30.70;;;;;;;;;;5017643;28;20207;-68
2022/09/11 09:37:27;;;;;;;38.13;29.37;;;;;;;;;;5019100;28;20211;-69
2022/09/11 09:39:53;;;;;;;35.50;27.57;;;;;;;;;;5018450;28;20640;-66
2022/09/11 09:42:38;;;;;;;33.50;27.17;;;;;;;;;;5018186;28;20656;-67
2022/09/11 09:45:20;;;;;;;36.03;28.63;;;;;;;;;;5019779;28;20260;-67
2022/09/11 09:47:47;;;;;;;35.63;28.17;;;;;;;;;;5019223;28;20643;-66
2022/09/11 09:50:40;;;;;;;39.97;29.33;;;;;;;;;;5018542;28;20184;-66
2022/09/11 09:53:06;;;;;;;39.13;30.60;;;;;;;;;;5016171;28;20199;-66
2022/09/11 09:55:32;;;;;;;41.10;32.07;;;;;;;;;;5019005;28;20211;-66
2022/09/11 09:57:58;;;;;;;37.50;30.60;;;;;;;;;;5017797;28;20238;-67
2022/09/11 10:00:24;;;;;;;42.23;34.27;;;;;;;;;;5018349;28;20652;-67
2022/09/11 10:02:53;;;;;;;45.13;31.53;;;;;;;;;;5016543;28;20186;-67
2022/09/11 10:05:27;;;;;;;44.60;37.50;;;;;;;;;;5017959;28;20206;-67
2022/09/11 10:07:58;;;;;;;43.73;34.30;;;;;;;;;;5017308;28;20199;-66
2022/09/11 10:10:30;;;;;;;39.20;30.63;;;;;;;;;;5017979;28;20184;-66
2022/09/11 10:12:58;;;;;;;37.57;29.17;;;;;;;;;;5015619;28;20656;-66
2022/09/11 10:15:24;;;;;;;36.07;29.93;;;;;;;;;;5014050;28;20208;-66
2022/09/11 10:17:51;;;;;;;39.20;29.53;;;;;;;;;;5015550;28;20207;-66
2022/09/11 10:20:25;;;;;;;38.47;30.43;;;;;;;;;;5015502;28;20254;-66
2022/09/11 10:22:51;;;;;;;39.93;31.10;;;;;;;;;;5015973;28;20247;-67
2022/09/11 10:25:21;;;;;;;41.00;30.53;;;;;;;;;;5015301;28;20199;-65
2022/09/11 10:27:55;;;;;;;35.73;28.87;;;;;;;;;;5015491;28;20579;-64
2022/09/11 10:30:27;;;;;;;32.43;28.27;;;;;;;;;;5015235;28;20651;-64
2022/09/11 10:32:54;;;;;;;36.63;27.57;;;;;;;;;;5014305;28;20184;-64
2022/09/11 10:35:21;;;;;;;36.97;28.13;;;;;;;;;;5014946;28;20231;-64
2022/09/11 10:37:58;;;;;;;35.17;28.27;;;;;;;;;;5015527;28;20204;-64
2022/09/11 10:40:24;;;;;;;29.73;26.23;;;;;;;;;;5015508;28;20250;-66
2022/09/11 10:42:50;;;;;;;30.60;24.43;;;;;;;;;;5014737;28;20653;-64
2022/09/11 10:45:17;;;;;;;27.97;24.93;;;;;;;;;;5014410;28;20669;-64
2022/09/11 10:47:50;;;;;;;31.27;25.93;;;;;;;;;;5014760;28;20303;-64
2022/09/11 10:50:16;;;;;;;30.03;25.83;;;;;;;;;;5013428;28;20648;-67
2022/09/11 10:52:57;;;;;;;27.40;23.90;;;;;;;;;;5014825;28;20187;-65
2022/09/11 10:55:37;;;;;;;30.27;24.90;;;;;;;;;;5013909;28;20582;-65
2022/09/11 10:58:07;;;;;;;29.40;24.53;;;;;;;;;;5013076;28;20231;-65
2022/09/11 11:00:34;;;;;;;26.40;22.47;;;;;;;;;;5013889;28;20183;-66
2022/09/11 11:03:05;;;;;;;26.83;22.77;;;;;;;;;;5014266;28;20227;-65
2022/09/11 11:05:39;;;;;;;23.13;20.63;;;;;;;;;;5014576;28;20188;-65
2022/09/11 11:08:15;;;;;;;25.00;21.43;;;;;;;;;;5014467;28;20183;-66
2022/09/11 11:10:41;;;;;;;28.10;22.20;;;;;;;;;;5014573;28;20179;-65
2022/09/11 11:13:28;;;;;;;24.47;21.87;;;;;;;;;;5014331;28;20176;-65
2022/09/11 11:16:07;;;;;;;23.53;19.97;;;;;;;;;;5014470;28;20655;-65
2022/09/11 11:18:42;;;;;;;26.43;21.97;;;;;;;;;;5012626;28;20222;-65
2022/09/11 11:21:28;;;;;;;22.60;20.20;;;;;;;;;;5012779;28;20624;-65
2022/09/11 11:24:06;;;;;;;19.53;17.53;;;;;;;;;;5013717;28;20226;-65
2022/09/11 11:26:39;;;;;;;23.57;19.67;;;;;;;;;;5014134;28;20617;-65
2022/09/11 11:29:06;;;;;;;22.23;18.67;;;;;;;;;;5012664;28;20194;-64
2022/09/11 11:31:50;;;;;;;21.03;18.63;;;;;;;;;;5013789;28;20186;-65
2022/09/11 11:34:42;;;;;;;20.10;17.30;;;;;;;;;;5013889;28;20249;-65
2022/09/11 11:37:13;;;;;;;18.70;16.80;;;;;;;;;;5011383;28;20223;-65
2022/09/11 11:39:57;;;;;;;18.83;16.30;;;;;;;;;;5013777;28;20179;-66
2022/09/11 11:42:38;;;;;;;24.30;19.07;;;;;;;;;;5013977;28;20545;-68
2022/09/11 11:45:16;;;;;;;23.97;18.63;;;;;;;;;;5012841;28;20211;-66
2022/09/11 11:47:43;;;;;;;23.20;19.50;;;;;;;;;;5012707;28;20175;-66
2022/09/11 11:50:21;;;;;;;20.27;18.17;;;;;;;;;;5012431;28;20570;-66
2022/09/11 11:53:02;;;;;;;20.17;16.37;;;;;;;;;;5013616;28;20251;-66
2022/09/11 11:55:43;;;;;;;18.87;16.07;;;;;;;;;;5013883;28;20195;-66
2022/09/11 11:58:23;;;;;;;17.03;14.40;;;;;;;;;;5013510;28;20196;-66
2022/09/11 12:00:54;;;;;;;18.27;15.47;;;;;;;;;;5012195;28;20183;-66
2022/09/11 12:03:34;;;;;;;14.53;13.07;;;;;;;;;;5013861;28;20183;-66
2022/09/11 12:06:01;;;;;;;15.90;13.20;;;;;;;;;;5013300;28;20214;-65
2022/09/11 12:08:27;;;;;;;17.50;14.80;;;;;;;;;;5013381;28;20222;-66
2022/09/11 12:10:58;;;;;;;19.87;16.43;;;;;;;;;;5012394;28;20648;-66
2022/09/11 12:13:31;;;;;;;19.10;15.47;;;;;;;;;;5016792;28;20188;-65
2022/09/11 12:16:01;;;;;;;21.13;18.80;;;;;;;;;;5016272;28;20184;-66
2022/09/11 12:18:28;;;;;;;51.70;46.67;;;;;;;;;;5017142;28;20207;-67
2022/09/11 12:21:13;;;;;;;19.73;17.40;;;;;;;;;;5017304;28;20176;-67
2022/09/11 12:23:46;;;;;;;21.77;15.77;;;;;;;;;;5015966;28;20282;-66
2022/09/11 12:26:17;;;;;;;19.67;17.23;;;;;;;;;;5015890;28;20668;-66
2022/09/11 12:28:43;;;;;;;20.80;17.07;;;;;;;;;;5017170;28;20667;-66
2022/09/11 12:31:10;;;;;;;19.27;17.07;;;;;;;;;;5017427;28;20184;-67
2022/09/11 12:33:43;;;;;;;18.30;16.30;;;;;;;;;;5015917;28;20188;-67
2022/09/11 12:36:29;;;;;;;20.90;17.27;;;;;;;;;;5017165;28;20187;-65
2022/09/11 12:38:57;;;;;;;22.07;16.57;;;;;;;;;;5015684;28;20200;-65
2022/09/11 12:41:28;;;;;;;21.67;18.70;;;;;;;;;;5015717;28;20561;-65
2022/09/11 12:43:55;;;;;;;25.93;23.20;;;;;;;;;;5016544;28;20203;-65
2022/09/11 12:46:20;;;;;;;21.90;19.23;;;;;;;;;;5015565;28;20202;-66
2022/09/11 12:48:54;;;;;;;22.10;19.80;;;;;;;;;;5016819;28;20645;-65
2022/09/11 12:51:32;;;;;;;43.33;38.73;;;;;;;;;;5016711;28;20268;-65
2022/09/11 12:54:00;;;;;;;29.77;25.43;;;;;;;;;;5015482;28;20203;-65
2022/09/11 12:56:27;;;;;;;121.87;109.13;;;;;;;;;;5016860;28;20277;-66
2022/09/11 12:58:57;;;;;;;34.33;30.13;;;;;;;;;;5015174;28;20207;-66
2022/09/11 13:01:26;;;;;;;26.37;21.37;;;;;;;;;;5016638;28;20530;-66
2022/09/11 13:03:52;;;;;;;21.03;18.93;;;;;;;;;;5015254;28;20199;-66
2022/09/11 13:06:18;;;;;;;21.83;19.30;;;;;;;;;;5016393;28;20259;-66
2022/09/11 13:08:50;;;;;;;24.67;19.87;;;;;;;;;;5015119;28;20187;-66
2022/09/11 13:11:35;;;;;;;24.47;20.00;;;;;;;;;;5016392;28;20184;-66
2022/09/11 13:14:01;;;;;;;20.13;17.27;;;;;;;;;;5015021;28;20214;-66
2022/09/11 13:16:33;;;;;;;19.90;17.87;;;;;;;;;;5016620;28;20601;-66
2022/09/11 13:19:12;;;;;;;19.50;17.47;;;;;;;;;;5015148;28;20242;-66
2022/09/11 13:21:39;;;;;;;18.47;16.57;;;;;;;;;;5016842;28;20156;-66
2022/09/11 13:24:24;;;;;;;18.50;16.70;;;;;;;;;;5016105;28;20195;-66
2022/09/11 13:26:54;;;;;;;22.27;19.97;;;;;;;;;;5016137;28;20176;-64
2022/09/11 13:29:20;;;;;;;18.20;16.27;;;;;;;;;;5014778;28;20180;-64
2022/09/11 13:31:46;;;;;;;17.87;15.90;;;;;;;;;;5016075;28;20176;-64
2022/09/11 13:34:13;;;;;;;18.87;16.97;;;;;;;;;;5016070;28;20195;-63
2022/09/11 13:36:39;;;;;;;21.77;16.53;;;;;;;;;;5014622;28;20270;-66
2022/09/11 13:39:06;;;;;;;14.87;13.37;;;;;;;;;;5015795;28;20295;-66
2022/09/11 13:41:34;;;;;;;16.00;14.27;;;;;;;;;;5016152;28;20255;-66
2022/09/11 13:44:01;;;;;;;15.63;11.67;;;;;;;;;;5015781;28;20239;-66
2022/09/11 13:46:30;;;;;;;13.40;11.90;;;;;;;;;;5016332;28;20164;-66
2022/09/11 13:48:59;;;;;;;16.83;15.03;;;;;;;;;;5014387;28;20175;-66
2022/09/11 13:51:28;;;;;;;31.33;24.57;;;;;;;;;;5015724;28;20550;-66
2022/09/11 13:54:04;;;;;;;20.40;17.57;;;;;;;;;;5014422;28;20676;-66
2022/09/11 13:56:49;;;;;;;17.03;15.27;;;;;;;;;;5015473;28;20318;-69
2022/09/11 13:59:34;;;;;;;18.20;16.30;;;;;;;;;;5015423;28;20223;-67
2022/09/11 14:02:00;;;;;;;17.57;15.77;;;;;;;;;;5014270;28;20226;-66
2022/09/11 14:04:28;;;;;;;17.57;15.53;;;;;;;;;;5015415;28;20687;-66
2022/09/11 14:06:54;;;;;;;15.27;13.67;;;;;;;;;;5015709;28;20639;-65
2022/09/11 14:09:21;;;;;;;16.43;14.70;;;;;;;;;;5015247;28;20202;-65
2022/09/11 14:11:47;;;;;;;16.83;14.50;;;;;;;;;;5014048;28;20310;-66
2022/09/11 14:14:18;;;;;;;11.67;10.47;;;;;;;;;;5015458;28;20207;-66
2022/09/11 14:16:46;;;;;;;13.30;10.87;;;;;;;;;;5015706;28;20535;-65
2022/09/11 14:19:12;;;;;;;11.00;9.90;;;;;;;;;;5015077;28;20207;-65
2022/09/11 14:21:43;;;;;;;11.93;9.83;;;;;;;;;;5015095;28;20236;-65
2022/09/11 14:24:41;;;;;;;10.97;9.43;;;;;;;;;;5014088;28;20195;-65
2022/09/11 14:27:26;;;;;;;10.17;9.13;;;;;;;;;;4982260;28;20279;-64